Flight Track Log - Related Links

Times and Time Zones

All times are in EDT time to prevent confusion due to time zone crossing. See the VRD273 flight status page for this flight to view local times or setup timezone preferences in your user account.

Time Position Orientation Groundspeed Altitude Reporting Facility
EDT Latitude Longitude Course Direction KTS MPH feet Rate Location/Type
Sat 05:35:32 PM 22.4820 -106.5940 325° Northwest 440 506 33,300  Level FlightAware ADS-B
Sat 05:36:17 PM 22.5590 -106.6520 325° Northwest 433 498 34,200 988 Climbing FlightAware ADS-B
Sat 05:36:57 PM 22.6260 -106.7020 325° Northwest 433 498 34,700 750 Climbing FlightAware ADS-B
Sat 05:37:37 PM 22.6910 -106.7510 325° Northwest 431 496 35,200 918 Climbing FlightAware ADS-B
Sat 05:38:22 PM 22.7630 -106.8050 325° Northwest 423 487 36,000 565 Climbing FlightAware ADS-B
Sat 05:39:02 PM 22.8270 -106.8540 325° Northwest 428 493 36,000  Level FlightAware ADS-B
Sat 05:39:42 PM 22.8930 -106.9040 325° Northwest 428 493 36,000  Level FlightAware ADS-B
Sat 05:40:27 PM 22.9670 -106.9600 325° Northwest 428 493 36,000  Level FlightAware ADS-B
Sat 05:41:07 PM 23.0320 -107.0090 325° Northwest 427 491 36,000  Level FlightAware ADS-B
Sat 05:41:52 PM 23.1040 -107.0640 325° Northwest 427 491 36,000  Level FlightAware ADS-B
Sat 05:42:32 PM 23.1700 -107.1130 326° Northwest 428 493 36,000 71 Level FlightAware ADS-B
Sat 05:43:17 PM 23.2430 -107.1690 325° Northwest 426 490 36,100  Climbing FlightAware ADS-B
Sat 05:43:57 PM 23.3090 -107.2200 325° Northwest 424 488 36,000 -75 Descending FlightAware ADS-B
Sat 05:44:37 PM 23.3720 -107.2680 325° Northwest 422 486 36,000  Level FlightAware ADS-B
Sat 05:45:22 PM 23.4430 -107.3220 325° Northwest 421 484 36,000  Level FlightAware ADS-B
Sat 05:46:02 PM 23.5080 -107.3710 325° Northwest 421 484 36,000  Level FlightAware ADS-B
Sat 05:46:47 PM 23.5800 -107.4270 325° Northwest 421 484 36,000  Level FlightAware ADS-B
Sat 05:47:27 PM 23.6440 -107.4760 325° Northwest 419 482 36,000  Level FlightAware ADS-B
Sat 05:48:07 PM 23.7080 -107.5250 325° Northwest 421 484 36,000  Level FlightAware ADS-B
Sat 05:48:52 PM 23.7790 -107.5800 325° Northwest 421 484 36,000  Level FlightAware ADS-B
Sat 05:49:32 PM 23.8440 -107.6290 325° Northwest 418 481 36,000  Level FlightAware ADS-B
Sat 05:50:17 PM 23.9120 -107.6810 325° Northwest 418 481 36,000  Level FlightAware ADS-B
Sat 05:50:57 PM 23.9770 -107.7320 324° Northwest 418 481 36,000  Level FlightAware ADS-B
Sat 05:51:37 PM 24.0390 -107.7800 325° Northwest 417 480 36,000  Level FlightAware ADS-B
Sat 05:52:22 PM 24.1120 -107.8360 325° Northwest 418 481 36,000  Level FlightAware ADS-B
Sat 05:53:02 PM 24.1760 -107.8860 325° Northwest 417 480 36,000  Level FlightAware ADS-B
Sat 05:53:42 PM 24.2360 -107.9320 325° Northwest 418 481 36,000  Level FlightAware ADS-B
Sat 05:54:27 PM 24.3090 -107.9890 325° Northwest 420 483 36,000  Level FlightAware ADS-B
Sat 05:55:07 PM 24.3720 -108.0380 325° Northwest 421 484 36,000  Level FlightAware ADS-B
Sat 05:55:47 PM 24.4350 -108.0870 325° Northwest 422 486 36,000  Level FlightAware ADS-B
Sat 05:56:32 PM 24.5090 -108.1440 325° Northwest 424 488 36,000  Level FlightAware ADS-B
Sat 05:57:17 PM 24.5790 -108.1990 324° Northwest 426 490 36,000  Level FlightAware ADS-B
Sat 05:57:57 PM 24.6440 -108.2510 324° Northwest 426 490 36,000  Level FlightAware ADS-B
Sat 05:58:37 PM 24.7080 -108.3010 325° Northwest 427 491 36,000  Level FlightAware ADS-B
Sat 05:59:22 PM 24.7820 -108.3580 325° Northwest 426 490 36,000  Level FlightAware ADS-B
Sat 06:00:02 PM 24.8470 -108.4090 325° Northwest 425 489 36,000  Level FlightAware ADS-B
Sat 06:00:42 PM 24.9100 -108.4580 325° Northwest 423 487 36,000  Level FlightAware ADS-B
Sat 06:01:27 PM 24.9800 -108.5140 324° Northwest 424 488 36,000  Level FlightAware ADS-B
Sat 06:02:07 PM 25.0430 -108.5640 324° Northwest 428 493 36,000  Level FlightAware ADS-B
Sat 06:02:47 PM 25.1100 -108.6160 325° Northwest 430 495 36,000  Level FlightAware ADS-B
Sat 06:03:32 PM 25.1840 -108.6750 324° Northwest 432 497 36,000 67 Level FlightAware ADS-B
Sat 06:04:17 PM 25.2560 -108.7320 324° Northwest 429 494 36,100  Climbing FlightAware ADS-B
Sat 06:04:57 PM 25.3190 -108.7820 324° Northwest 428 493 36,000 -75 Descending FlightAware ADS-B
Sat 06:05:37 PM 25.3850 -108.8340 325° Northwest 429 494 36,000  Level FlightAware ADS-B
Sat 06:06:22 PM 25.4580 -108.8920 324° Northwest 429 494 36,000  Level FlightAware ADS-B
Sat 06:07:02 PM 25.5220 -108.9430 324° Northwest 431 496 36,000  Level FlightAware ADS-B
Sat 06:07:47 PM 25.5940 -109.0010 324° Northwest 433 498 36,000  Level FlightAware ADS-B
Sat 06:08:27 PM 25.6590 -109.0520 325° Northwest 433 498 36,000 75 Level FlightAware ADS-B
Sat 06:09:07 PM 25.7200 -109.1100 319° Northwest 423 487 36,100  Climbing FlightAware ADS-B
Sat 06:09:52 PM 25.7870 -109.1800 317° Northwest 424 488 36,000 -71 Descending FlightAware ADS-B
Sat 06:10:32 PM 25.8430 -109.2380 317° Northwest 423 487 36,000  Level FlightAware ADS-B
Sat 06:11:12 PM 25.9000 -109.2980 317° Northwest 421 484 36,000  Level FlightAware ADS-B
Sat 06:11:57 PM 25.9620 -109.3630 317° Northwest 419 482 36,000  Level FlightAware ADS-B
Sat 06:12:37 PM 26.0180 -109.4230 316° Northwest 419 482 36,000  Level FlightAware ADS-B
Sat 06:13:17 PM 26.0760 -109.4840 317° Northwest 420 483 36,000  Level FlightAware ADS-B
Sat 06:14:02 PM 26.1380 -109.5490 317° Northwest 420 483 36,000  Level FlightAware ADS-B
Sat 06:14:42 PM 26.1940 -109.6090 316° Northwest 418 481 36,000  Level FlightAware ADS-B
Sat 06:15:27 PM 26.2590 -109.6770 317° Northwest 415 478 36,000  Level FlightAware ADS-B
Sat 06:16:07 PM 26.3140 -109.7350 317° Northwest 413 475 36,000  Level FlightAware ADS-B
Sat 06:16:47 PM 26.3700 -109.7950 316° Northwest 415 478 36,000  Level FlightAware ADS-B
Sat 06:17:27 PM 26.4180 -109.8470 316° Northwest 415 478 36,000  Level FlightAware ADS-B
Sat 06:18:27 PM 26.5010 -109.9350 317° Northwest 418 481 36,000  Level FlightAware ADS-B
Sat 06:19:07 PM 26.5650 -110.0030 316° Northwest 418 481 36,000  Level FlightAware ADS-B
Sat 06:19:52 PM 26.6210 -110.0630 316° Northwest 418 481 36,000  Level FlightAware ADS-B
Sat 06:20:32 PM 26.6690 -110.1140 316° Northwest 418 481 36,000  Level FlightAware ADS-B
Sat 06:21:12 PM 26.7160 -110.1660 315° West 418 481 36,000  Level FlightAware ADS-B
Sat 06:21:52 PM 26.7630 -110.2170 316° Northwest 418 481 36,000  Level FlightAware ADS-B
Sat 06:22:32 PM 26.8110 -110.2680 317° Northwest 418 481 36,000  Level FlightAware ADS-B
Sat 06:23:22 PM 26.8700 -110.3320 316° Northwest 418 481 36,000  Level FlightAware ADS-B
Sat 06:24:02 PM 26.9170 -110.3830 316° Northwest 418 481 36,000  Level FlightAware ADS-B
Sat 06:24:42 PM 26.9640 -110.4340 316° Northwest 418 481 36,000  Level FlightAware ADS-B
Sat 06:25:27 PM 27.0930 -110.5700 317° Northwest 413 475 36,000  Level FlightAware ADS-B
Sat 06:26:07 PM 27.1490 -110.6310 316° Northwest 416 479 36,000  Level FlightAware ADS-B
Sat 06:26:52 PM 27.2080 -110.6940 316° Northwest 418 481 36,000  Level FlightAware ADS-B
Sat 06:27:32 PM 27.2660 -110.7570 316° Northwest 419 482 36,000  Level FlightAware ADS-B
Sat 06:28:12 PM 27.3220 -110.8180 316° Northwest 420 483 36,000  Level FlightAware ADS-B
Sat 06:28:57 PM 27.3870 -110.8890 316° Northwest 420 483 36,000  Level FlightAware ADS-B
Sat 06:29:37 PM 27.4420 -110.9500 315° West 422 486 36,000  Level FlightAware ADS-B
Sat 06:30:22 PM 27.5040 -111.0170 316° Northwest 423 487 36,000  Level FlightAware ADS-B
Sat 06:31:02 PM 27.5610 -111.0790 316° Northwest 425 489 36,000  Level FlightAware ADS-B
Sat 06:31:47 PM 27.6250 -111.1490 316° Northwest 425 489 36,000  Level FlightAware ADS-B
Sat 06:32:27 PM 27.6820 -111.2120 316° Northwest 426 490 36,000  Level FlightAware ADS-B
Sat 06:33:07 PM 27.7380 -111.2740 316° Northwest 425 489 36,000 71 Level FlightAware ADS-B
Sat 06:33:52 PM 27.7990 -111.3410 316° Northwest 422 486 36,100  Climbing FlightAware ADS-B
Sat 06:34:32 PM 27.8570 -111.4040 316° Northwest 420 483 36,000 -75 Descending FlightAware ADS-B
Sat 06:35:12 PM 27.9110 -111.4630 316° Northwest 420 483 36,000  Level FlightAware ADS-B
Sat 06:35:57 PM 27.9750 -111.5350 315° West 420 483 36,000  Level FlightAware ADS-B
Sat 06:36:37 PM 28.0290 -111.5950 316° Northwest 422 486 36,000  Level FlightAware ADS-B
Sat 06:37:22 PM 28.0910 -111.6640 316° Northwest 424 488 36,000  Level FlightAware ADS-B
Sat 06:38:02 PM 28.1480 -111.7280 315° West 422 486 36,000  Level FlightAware ADS-B
Sat 06:38:47 PM 28.2130 -111.7990 316° Northwest 422 486 36,000  Level FlightAware ADS-B
Sat 06:39:27 PM 28.2690 -111.8620 315° West 422 486 36,000  Level FlightAware ADS-B
Sat 06:40:07 PM 28.3240 -111.9230 316° Northwest 422 486 36,000  Level FlightAware ADS-B
Sat 06:40:47 PM 28.3800 -111.9860 315° West 421 484 36,000  Level FlightAware ADS-B
Sat 06:41:32 PM 28.4400 -112.0530 316° Northwest 422 486 36,000  Level FlightAware ADS-B
Sat 06:42:12 PM 28.4970 -112.1170 315° West 422 486 36,000  Level FlightAware ADS-B
Sat 06:42:57 PM 28.5580 -112.1860 315° West 422 486 36,000  Level FlightAware ADS-B
Sat 06:43:37 PM 28.6150 -112.2500 315° West 422 486 36,000  Level FlightAware ADS-B
Sat 06:44:22 PM 28.6750 -112.3180 315° West 422 486 36,000  Level FlightAware ADS-B
Sat 06:45:02 PM 28.7320 -112.3830 315° West 422 486 36,000  Level FlightAware ADS-B
Sat 06:45:42 PM 28.7860 -112.4440 315° West 423 487 36,000  Level FlightAware ADS-B
Sat 06:46:27 PM 28.8510 -112.5170 315° West 424 488 36,000  Level FlightAware ADS-B
Sat 06:47:07 PM 28.9070 -112.5810 315° West 425 489 36,000  Level FlightAware ADS-B
Sat 06:47:47 PM 28.9630 -112.6450 315° West 426 490 36,000  Level FlightAware ADS-B
Sat 06:48:32 PM 29.0260 -112.7160 315° West 427 491 36,000  Level FlightAware ADS-B
Sat 06:49:07 PM 29.0730 -112.7700 315° West 428 493 36,000  Level FlightAware ADS-B
Sat 06:50:12 PM 29.1660 -112.8770 315° West 428 493 36,000  Level FlightAware ADS-B
Sat 06:50:52 PM 29.2220 -112.9410 315° West 429 494 36,000  Level FlightAware ADS-B
Sat 06:51:32 PM 29.2770 -113.0040 315° West 432 497 36,000  Level FlightAware ADS-B
Sat 06:52:17 PM 29.3410 -113.0780 315° West 432 497 36,000 71 Level FlightAware ADS-B
Sat 06:52:57 PM 29.3940 -113.1390 315° West 431 496 36,100  Climbing FlightAware ADS-B
Sat 06:53:27 PM 29.4370 -113.1890 315° West 429 494 36,000 -86 Descending FlightAware ADS-B
Sat 06:54:07 PM 29.4930 -113.2530 315° West 427 491 36,000  Level FlightAware ADS-B
Sat 06:55:02 PM 29.5670 -113.3400 314° West 427 491 36,000  Level FlightAware ADS-B
Sat 06:55:47 PM 29.6340 -113.4160 315° West 427 491 36,000  Level FlightAware ADS-B
Sat 06:56:27 PM 29.6890 -113.4810 314° West 429 494 36,000  Level FlightAware ADS-B
Sat 06:57:12 PM 29.7510 -113.5530 315° West 430 495 36,000  Level FlightAware ADS-B
Sat 06:57:52 PM 29.8090 -113.6200 315° West 429 494 36,000  Level FlightAware ADS-B
Sat 06:58:32 PM 29.8660 -113.6870 314° West 428 493 36,000  Level FlightAware ADS-B
Sat 06:59:12 PM 29.9130 -113.7430 314° West 428 493 36,000  Level FlightAware ADS-B
Sat 06:59:52 PM 29.9600 -113.7990 314° West 428 493 36,000  Level FlightAware ADS-B
Sat 07:00:42 PM 30.0180 -113.8690 314° West 428 493 36,000  Level FlightAware ADS-B
Sat 07:01:22 PM 30.0650 -113.9240 315° West 428 493 36,000  Level FlightAware ADS-B
Sat 07:02:02 PM 30.1120 -113.9800 314° West 428 493 36,000  Level FlightAware ADS-B
Sat 07:02:42 PM 30.1580 -114.0360 314° West 428 493 36,000  Level FlightAware ADS-B
Sat 07:03:22 PM 30.2050 -114.0920 314° West 428 493 36,000  Level FlightAware ADS-B
Sat 07:04:12 PM 30.2640 -114.1630 314° West 428 493 36,000  Level FlightAware ADS-B
Sat 07:04:52 PM 30.3100 -114.2190 314° West 428 493 36,000  Level FlightAware ADS-B
Sat 07:05:32 PM 30.3570 -114.2750 314° West 428 493 36,000  Level FlightAware ADS-B
Sat 07:06:12 PM 30.4040 -114.3310 314° West 428 493 36,000  Level FlightAware ADS-B
Sat 07:06:52 PM 30.4510 -114.3870 314° West 428 493 36,000  Level FlightAware ADS-B
Sat 07:07:42 PM 30.5090 -114.4570 314° West 428 493 36,000  Level FlightAware ADS-B
Sat 07:08:22 PM 30.5560 -114.5140 314° West 428 493 36,000  Level FlightAware ADS-B
Sat 07:10:00 PM 30.6909 -114.6481 319° Northwest  Level Estimated
Sat 07:11:00 PM 30.7738 -114.7308 319° Northwest  Level Estimated
Sat 07:12:00 PM 30.8566 -114.8136 319° Northwest  Level Estimated
Sat 07:13:00 PM 30.9394 -114.8966 319° Northwest  Level Estimated
Sat 07:14:00 PM 31.0221 -114.9797 319° Northwest  Level Estimated
Sat 07:15:00 PM 31.1048 -115.0630 319° Northwest  Level Estimated
Sat 07:16:00 PM 31.1874 -115.1464 319° Northwest  Level Estimated
Sat 07:17:00 PM 31.2700 -115.2299 319° Northwest  Level Estimated
Sat 07:18:00 PM 31.3525 -115.3136 319° Northwest  Level Estimated
Sat 07:19:00 PM 31.4349 -115.3975 319° Northwest  Level Estimated
Sat 07:20:00 PM 31.5174 -115.4815 319° Northwest  Level Estimated
Sat 07:21:00 PM 31.5997 -115.5656 319° Northwest  Level Estimated
Sat 07:22:00 PM 31.6820 -115.6499 319° Northwest  Level Estimated
Sat 07:23:00 PM 31.7642 -115.7344 319° Northwest  Level Estimated
Sat 07:24:00 PM 31.8464 -115.8189 319° Northwest  Level Estimated
Sat 07:25:00 PM 31.9286 -115.9037 319° Northwest  Level Estimated
Sat 07:26:00 PM 32.0106 -115.9886 319° Northwest  Level Estimated
Sat 07:27:00 PM 32.0927 -116.0736 319° Northwest  Level Estimated
Sat 07:28:00 PM 32.1746 -116.1588 319° Northwest  Level Estimated
Sat 07:28:12 PM 32.2310 -116.5590 319° Northwest 412 474 36,000  Level FlightAware ADS-B
Sat 07:28:42 PM 32.2710 -116.6090 313° West 411 473 36,000  Level FlightAware ADS-B
Sat 07:29:22 PM 32.3240 -116.6770 313° West 411 473 36,000  Level FlightAware ADS-B
Sat 07:30:22 PM 32.3990 -116.7720 313° West 411 473 36,000  Level FlightAware ADS-B
Sat 07:31:02 PM 32.4530 -116.8400 313° West 410 472 36,000  Level FlightAware ADS-B
Sat 07:31:42 PM 32.5030 -116.9040 313° West 407 468 36,000  Level FlightAware ADS-B
Sat 07:32:27 PM 32.5600 -116.9770 313° West 409 471 36,000  Level FlightAware ADS-B
Sat 07:33:07 PM 32.6100 -117.0470 310° West 411 473 36,000  Level FlightAware ADS-B
Sat 07:33:52 PM 32.6630 -117.1210 310° West 412 474 36,000  Level FlightAware ADS-B
Sat 07:34:32 PM 32.7160 -117.1940 311° West 414 476 36,000  Level FlightAware ADS-B
Sat 07:35:12 PM 32.7620 -117.2590 310° West 414 476 36,000  Level FlightAware ADS-B
Sat 07:35:57 PM 32.8210 -117.3400 311° West 414 476 36,000  Level FlightAware ADS-B
Sat 07:36:37 PM 32.8700 -117.4100 310° West 413 475 36,000  Level FlightAware ADS-B
Sat 07:37:17 PM 32.9200 -117.4790 311° West 412 474 36,000  Level FlightAware ADS-B
Sat 07:38:02 PM 32.9770 -117.5580 311° West 412 474 36,000  Level FlightAware ADS-B
Sat 07:38:42 PM 33.0270 -117.6290 310° West 411 473 36,000  Level FlightAware ADS-B
Sat 07:39:27 PM 33.0800 -117.7030 311° West 409 471 36,000  Level FlightAware ADS-B
Sat 07:40:07 PM 33.1300 -117.7730 310° West 409 471 36,000  Level FlightAware ADS-B
Sat 07:40:52 PM 33.1850 -117.8510 310° West 406 467 36,000  Level FlightAware ADS-B
Sat 07:41:32 PM 33.2340 -117.9200 310° West 405 466 36,000  Level FlightAware ADS-B
Sat 07:42:12 PM 33.2810 -117.9870 310° West 405 466 36,000  Level FlightAware ADS-B
Sat 07:42:57 PM 33.3350 -118.0630 310° West 406 467 36,000  Level FlightAware ADS-B
Sat 07:43:37 PM 33.3840 -118.1330 310° West 408 470 36,000  Level FlightAware ADS-B
Sat 07:44:22 PM 33.4390 -118.2110 310° West 408 470 36,000  Level FlightAware ADS-B
Sat 07:45:02 PM 33.4860 -118.2780 310° West 409 471 36,000  Level FlightAware ADS-B
Sat 07:45:42 PM 33.5360 -118.3490 310° West 409 471 36,000  Level FlightAware ADS-B
Sat 07:46:27 PM 33.5880 -118.4240 310° West 409 471 36,000  Level FlightAware ADS-B
Sat 07:47:07 PM 33.6390 -118.4970 310° West 409 471 36,000 71 Level FlightAware ADS-B
Sat 07:47:52 PM 33.6950 -118.5770 310° West 405 466 36,100  Climbing FlightAware ADS-B
Sat 07:48:32 PM 33.7420 -118.6460 309° West 402 463 36,000 -75 Descending FlightAware ADS-B
Sat 07:49:12 PM 33.7900 -118.7150 310° West 401 461 36,000  Level FlightAware ADS-B
Sat 07:49:57 PM 33.8410 -118.7880 310° West 401 461 36,000  Level FlightAware ADS-B
Sat 07:50:37 PM 33.8880 -118.8570 309° West 402 463 36,000  Level FlightAware ADS-B
Sat 07:51:22 PM 33.9430 -118.9370 310° West 403 464 36,000  Level FlightAware ADS-B
Sat 07:52:02 PM 33.9920 -119.0080 310° West 404 465 36,000  Level FlightAware ADS-B
Sat 07:52:42 PM 34.0380 -119.0760 309° West 404 465 36,000  Level FlightAware ADS-B
Sat 07:53:27 PM 34.0910 -119.1530 310° West 404 465 36,000  Level FlightAware ADS-B
Sat 07:54:07 PM 34.1380 -119.2210 310° West 404 465 36,000  Level FlightAware ADS-B
Sat 07:54:47 PM 34.1840 -119.2890 309° West 404 465 36,000  Level FlightAware ADS-B
Sat 07:55:32 PM 34.2400 -119.3720 309° West 406 467 36,000  Level FlightAware ADS-B
Sat 07:56:12 PM 34.2860 -119.4400 309° West 406 467 36,000  Level FlightAware ADS-B
Sat 07:56:57 PM 34.3420 -119.5230 309° West 408 470 36,000  Level FlightAware ADS-B
Sat 07:57:37 PM 34.3900 -119.5930 310° West 408 470 36,000  Level FlightAware ADS-B
Sat 07:58:22 PM 34.4310 -119.6540 309° West 409 471 36,000  Level FlightAware ADS-B
Sat 07:59:02 PM 34.4740 -119.7170 310° West 408 470 36,000  Level FlightAware ADS-B
Sat 07:59:57 PM 34.5600 -119.8250 314° West 396 456 36,000  Level FlightAware ADS-B
Sat 08:00:37 PM 34.6160 -119.8870 318° Northwest 395 455 36,000  Level FlightAware ADS-B
Sat 08:01:22 PM 34.6770 -119.9540 318° Northwest 395 455 36,000  Level FlightAware ADS-B
Sat 08:02:02 PM 34.7330 -120.0150 318° Northwest 394 453 36,000 -71 Level FlightAware ADS-B
Sat 08:02:47 PM 34.7950 -120.0820 318° Northwest 394 453 35,900 -494 Descending FlightAware ADS-B
Sat 08:03:27 PM 34.8500 -120.1430 318° Northwest 397 457 35,300 -975 Descending FlightAware ADS-B
Sat 08:04:07 PM 34.9040 -120.2020 318° Northwest 401 461 34,600 -918 Descending FlightAware ADS-B
Sat 08:04:52 PM 34.9680 -120.2730 318° Northwest 409 471 34,000 -424 Descending FlightAware ADS-B
Sat 08:05:32 PM 35.0250 -120.3360 318° Northwest 412 474 34,000  Level FlightAware ADS-B
Sat 08:06:17 PM 35.0880 -120.4060 318° Northwest 403 464 34,000  Level FlightAware ADS-B
Sat 08:06:57 PM 35.1450 -120.4690 318° Northwest 411 473 34,000  Level FlightAware ADS-B
Sat 08:07:32 PM 35.1870 -120.5160 318° Northwest 412 474 34,000  Level FlightAware ADS-B
Sat 08:08:22 PM 35.2630 -120.6010 318° Northwest 411 473 34,000  Level FlightAware ADS-B
Sat 08:09:02 PM 35.3180 -120.6620 318° Northwest 411 473 34,000  Level FlightAware ADS-B
Sat 08:09:47 PM 35.3740 -120.7280 316° Northwest 404 465 34,000  Level FlightAware ADS-B
Sat 08:10:22 PM 35.4310 -120.7870 320° Northwest 407 468 34,000  Level FlightAware ADS-B
Sat 08:11:07 PM 35.4920 -120.8480 321° Northwest 407 468 34,000  Level FlightAware ADS-B
Sat 08:11:47 PM 35.5420 -120.8970 321° Northwest 407 468 34,000 -141 Level FlightAware ADS-B
Sat 08:12:32 PM 35.6350 -120.9670 329° Northwest 407 468 33,800 -508 Descending FlightAware ADS-B
Sat 08:13:17 PM 35.6920 -121.0170 325° Northwest 33,100 -635 Descending FlightAware ADS-B
Sat 08:13:57 PM 35.7580 -121.0760 324° Northwest 416 479 32,900 -171 Descending FlightAware ADS-B
Sat 08:14:27 PM 35.7980 -121.1110 325° Northwest 416 479 32,900 -1,200 Level FlightAware ADS-B
Sat 08:15:07 PM 35.8520 -121.1590 324° Northwest 421 484 31,500 -1,133 Descending FlightAware ADS-B
Sat 08:15:57 PM 35.9530 -121.2490 324° Northwest 428 493 31,200 -695 Descending FlightAware ADS-B
Sat 08:16:42 PM 36.0210 -121.3090 324° Northwest 434 499 30,400 -667 Descending FlightAware ADS-B
Sat 08:17:27 PM 36.0990 -121.3790 324° Northwest 434 499 30,200 -706 Descending FlightAware ADS-B
Sat 08:18:07 PM 36.1610 -121.4340 324° Northwest 436 502 29,400 -706 Descending FlightAware ADS-B
Sat 08:18:52 PM 36.2310 -121.4970 324° Northwest 430 495 29,200 -706 Descending FlightAware ADS-B
Sat 08:19:32 PM 36.2960 -121.5560 324° Northwest 424 488 28,400 -1,553 Descending FlightAware ADS-B
Sat 08:20:17 PM 36.3730 -121.6250 324° Northwest 418 481 27,000 -2,118 Descending FlightAware ADS-B
Sat 08:20:57 PM 36.4350 -121.6820 324° Northwest 414 476 25,400 -2,475 Descending FlightAware ADS-B
Sat 08:21:37 PM 36.4920 -121.7330 324° Northwest 410 472 23,700 -2,400 Descending FlightAware ADS-B
Sat 08:22:22 PM 36.5650 -121.8000 324° Northwest 403 464 22,000 -2,188 Descending FlightAware ADS-B
Sat 08:23:02 PM 36.6260 -121.8540 325° Northwest 398 458 20,600 -2,118 Descending FlightAware ADS-B
Sat 08:23:47 PM 36.6910 -121.9140 323° Northwest 392 451 19,000 -2,100 Descending FlightAware ADS-B
Sat 08:24:22 PM 36.7400 -121.9580 324° Northwest 388 447 17,800 -2,291 Descending FlightAware ADS-B
Sat 08:24:42 PM 36.7800 -121.9740 342° North 387 445 16,900 -2,300 Descending FlightAware ADS-B
Sat 08:25:22 PM 36.8480 -121.9910 349° North 384 442 15,500 -2,118 Descending FlightAware ADS-B
Sat 08:26:07 PM 36.9260 -122.0120 348° North 374 430 13,900 -2,047 Descending FlightAware ADS-B
Sat 08:26:47 PM 36.9940 -122.0300 348° North 364 419 12,600 -1,129 Descending FlightAware ADS-B
Sat 08:27:32 PM 37.0530 -122.0450 349° North 333 383 12,300 -300 Descending FlightAware ADS-B
Sat 08:28:27 PM 37.1380 -122.0670 348° North 280 322 12,100 -505 Descending FlightAware ADS-B
Sat 08:29:07 PM 37.1860 -122.0800 348° North 264 304 11,500 -1,059 Descending FlightAware ADS-B
Sat 08:29:52 PM 37.2400 -122.0940 348° North 260 299 10,600 -1,200 Descending FlightAware ADS-B
Sat 08:30:22 PM 37.2740 -122.1030 348° North 257 296 10,000 -1,309 Descending FlightAware ADS-B
Sat 08:30:47 PM 37.3010 -122.1140 342° North 253 291 9,400 -1,500 Descending FlightAware ADS-B
Sat 08:31:02 PM 37.3140 -122.1310 314° West 251 289 9,000 -1,333 Descending FlightAware ADS-B
Sat 08:31:32 PM 37.3390 -122.1580 319° Northwest 253 291 8,400 -1,286 Descending FlightAware ADS-B
Sat 08:32:12 PM 37.3840 -122.1460 12° North 253 291 7,500 -1,457 Descending FlightAware ADS-B
Sat 08:32:42 PM 37.4160 -122.1290 23° Northeast 249 287 6,700 -1,650 Descending FlightAware ADS-B
Sat 08:32:52 PM 37.4270 -122.1280 North 247 284 6,400 -1,950 Descending FlightAware ADS-B
Sat 08:33:22 PM 37.4570 -122.1440 337° Northwest 244 281 5,400 -2,182 Descending FlightAware ADS-B
Sat 08:33:47 PM 37.4810 -122.1630 328° Northwest 243 280 4,400 -1,636 Descending FlightAware ADS-B
Sat 08:34:17 PM 37.5080 -122.1840 328° Northwest 213 245 3,900 -1,200 Descending FlightAware ADS-B
Sat 08:34:42 PM 37.5270 -122.2000 326° Northwest 195 224 3,300 -1,700 Descending FlightAware ADS-B
Sat 08:35:17 PM 37.5510 -122.2200 327° Northwest 190 219 2,200 -1,400 Descending FlightAware ADS-B
Sat 08:35:42 PM 37.5640 -122.2400 309° West 189 217 1,900 -360 Descending FlightAware ADS-B
Sat 08:36:07 PM 37.5750 -122.2610 303° West 189 217 1,900 -811 Level FlightAware ADS-B
Sat 08:36:56 PM 37.5919 -122.3058 303° West 181 208 900 -927 Descending Oakland Center
Sat 08:37:57 PM 37.6086 -122.3467 297° West 155 178 200 -689 Descending Oakland Center
Sat 08:39:00 PM 37.6167 -122.3667 322° Northwest  Level FlightAware Approximate
Sat 08:46:00 PM 37.6191 -122.3752 322° Northwest  Level Estimated

Login

Don't have an account? Register now (free) for customized features, flight alerts, and more!